createdAt,value
2023-06-15T00:00:25.697Z,526.00
2023-06-15T00:01:25.697Z,524.00
2023-06-15T00:02:25.768Z,525.00
2023-06-15T00:03:25.987Z,525.00
2023-06-15T00:04:25.898Z,529.00
2023-06-15T00:05:25.675Z,526.00
2023-06-15T00:06:25.677Z,526.00
2023-06-15T00:07:25.694Z,523.00
2023-06-15T00:08:25.669Z,523.00
2023-06-15T00:09:25.657Z,522.00
2023-06-15T00:10:25.655Z,526.00
2023-06-15T00:11:25.655Z,526.00
2023-06-15T00:12:25.689Z,525.00
2023-06-15T00:13:25.645Z,524.00
2023-06-15T00:14:25.633Z,524.00
2023-06-15T00:15:25.637Z,523.00
2023-06-15T00:16:25.716Z,523.00
2023-06-15T00:17:25.739Z,522.00
2023-06-15T00:18:25.627Z,524.00
2023-06-15T00:19:25.652Z,524.00
2023-06-15T00:20:25.622Z,522.00
2023-06-15T00:21:25.615Z,519.00
2023-06-15T00:22:25.612Z,517.00
2023-06-15T00:23:25.618Z,517.00
2023-06-15T00:24:25.692Z,516.00
2023-06-15T00:25:25.605Z,517.00
2023-06-15T00:26:25.596Z,516.00
2023-06-15T00:27:25.591Z,516.00
2023-06-15T00:28:25.608Z,515.00
2023-06-15T00:29:25.577Z,516.00
2023-06-15T00:30:25.576Z,515.00
2023-06-15T00:31:25.582Z,515.00
2023-06-15T00:32:25.610Z,516.00
2023-06-15T00:33:25.635Z,516.00
2023-06-15T00:34:25.610Z,515.00
2023-06-15T00:35:25.630Z,518.00
2023-06-15T00:36:25.633Z,520.00
2023-06-15T00:37:25.645Z,521.00
2023-06-15T00:38:25.696Z,519.00
2023-06-15T00:39:25.678Z,517.00
2023-06-15T00:40:25.673Z,515.00
2023-06-15T00:41:25.678Z,517.00
2023-06-15T00:42:25.685Z,518.00
2023-06-15T00:43:25.697Z,517.00
2023-06-15T00:44:25.742Z,519.00
2023-06-15T00:45:26.255Z,520.00
2023-06-15T00:46:25.758Z,518.00
2023-06-15T00:47:25.770Z,519.00
2023-06-15T00:48:25.789Z,519.00
2023-06-15T00:49:25.797Z,518.00
2023-06-15T00:50:25.805Z,521.00
2023-06-15T00:51:25.817Z,522.00
2023-06-15T00:52:25.826Z,519.00
2023-06-15T00:53:25.894Z,518.00
2023-06-15T00:54:25.913Z,519.00
2023-06-15T00:55:25.990Z,519.00
2023-06-15T00:56:25.932Z,517.00
2023-06-15T00:57:25.957Z,516.00
2023-06-15T00:58:25.991Z,518.00
2023-06-15T00:59:26.014Z,517.00
2023-06-15T01:00:26.090Z,519.00
2023-06-15T01:01:26.214Z,517.00
2023-06-15T01:02:26.196Z,516.00
2023-06-15T01:03:26.224Z,518.00
2023-06-15T01:04:26.233Z,520.00
2023-06-15T01:05:26.299Z,519.00
2023-06-15T01:06:26.327Z,521.00
2023-06-15T01:07:26.352Z,521.00
2023-06-15T01:08:26.397Z,521.00
2023-06-15T01:09:26.441Z,520.00
2023-06-15T01:10:26.428Z,522.00
2023-06-15T01:11:28.029Z,519.00
2023-06-15T01:12:26.432Z,515.00
2023-06-15T01:13:26.429Z,514.00
2023-06-15T01:14:26.432Z,515.00
2023-06-15T01:15:26.433Z,515.00
2023-06-15T01:16:26.500Z,514.00
2023-06-15T01:17:26.459Z,516.00
2023-06-15T01:18:26.439Z,514.00
2023-06-15T01:19:26.433Z,512.00
2023-06-15T01:20:26.432Z,514.00
2023-06-15T01:21:26.434Z,512.00
2023-06-15T01:22:26.429Z,511.00
2023-06-15T01:23:26.425Z,511.00
2023-06-15T01:24:26.621Z,511.00
2023-06-15T01:25:26.453Z,511.00
2023-06-15T01:26:26.428Z,512.00
2023-06-15T01:27:26.428Z,514.00
2023-06-15T01:28:26.438Z,514.00
2023-06-15T01:29:26.437Z,515.00
2023-06-15T01:30:26.426Z,515.00
2023-06-15T01:31:26.513Z,513.00
2023-06-15T01:32:26.460Z,511.00
2023-06-15T01:33:26.433Z,508.00
2023-06-15T01:34:26.423Z,511.00
2023-06-15T01:35:26.438Z,511.00
2023-06-15T01:36:26.442Z,513.00
2023-06-15T01:37:26.422Z,515.00
2023-06-15T01:38:26.426Z,517.00
2023-06-15T01:39:26.428Z,517.00
2023-06-15T01:40:26.430Z,517.00
2023-06-15T01:41:26.416Z,519.00
2023-06-15T01:42:26.424Z,518.00
2023-06-15T01:43:26.430Z,518.00
2023-06-15T01:44:26.453Z,518.00
2023-06-15T01:45:26.433Z,520.00
2023-06-15T01:46:26.468Z,523.00
2023-06-15T01:47:26.475Z,520.00
2023-06-15T01:48:26.455Z,522.00
2023-06-15T01:49:26.437Z,521.00
2023-06-15T01:50:26.440Z,520.00
2023-06-15T01:51:26.435Z,519.00
2023-06-15T01:52:26.449Z,517.00
2023-06-15T01:53:26.428Z,514.00
2023-06-15T01:54:26.412Z,511.00
2023-06-15T01:55:26.407Z,512.00
2023-06-15T01:56:26.403Z,513.00
2023-06-15T01:57:37.337Z,511.00
2023-06-15T01:58:27.293Z,509.00
2023-06-15T01:59:26.412Z,508.00
2023-06-15T02:00:26.399Z,510.00
2023-06-15T02:01:26.430Z,509.00
2023-06-15T02:02:26.418Z,509.00
2023-06-15T02:03:26.392Z,507.00
2023-06-15T02:04:26.441Z,508.00
2023-06-15T02:05:26.455Z,509.00
2023-06-15T02:06:26.414Z,508.00
2023-06-15T02:07:26.413Z,507.00
2023-06-15T02:08:26.400Z,507.00
2023-06-15T02:09:26.438Z,509.00
2023-06-15T02:10:26.404Z,509.00
2023-06-15T02:11:26.404Z,508.00
2023-06-15T02:12:26.394Z,508.00
2023-06-15T02:13:26.409Z,508.00
2023-06-15T02:14:26.399Z,507.00
2023-06-15T02:15:26.401Z,507.00
2023-06-15T02:16:26.398Z,505.00
2023-06-15T02:17:26.488Z,504.00
2023-06-15T02:18:26.395Z,501.00
2023-06-15T02:19:26.390Z,503.00
2023-06-15T02:20:26.471Z,505.00
2023-06-15T02:21:26.417Z,505.00
2023-06-15T02:22:26.387Z,503.00
2023-06-15T02:23:26.385Z,505.00
2023-06-15T02:24:26.468Z,501.00
2023-06-15T02:25:26.379Z,501.00
2023-06-15T02:26:26.383Z,501.00
2023-06-15T02:27:26.371Z,502.00
2023-06-15T02:28:26.385Z,502.00
2023-06-15T02:29:26.364Z,503.00
2023-06-15T02:30:26.362Z,500.00
2023-06-15T02:31:26.368Z,500.00
2023-06-15T02:32:26.390Z,499.00
2023-06-15T02:33:26.348Z,501.00
2023-06-15T02:34:26.410Z,502.00
2023-06-15T02:35:26.345Z,500.00
2023-06-15T02:36:26.365Z,497.00
2023-06-15T02:37:26.360Z,495.00
2023-06-15T02:38:26.352Z,493.00
2023-06-15T02:39:26.356Z,495.00
2023-06-15T02:40:26.348Z,494.00
2023-06-15T02:41:26.350Z,493.00
2023-06-15T02:42:26.344Z,494.00
2023-06-15T02:43:26.348Z,496.00
2023-06-15T02:44:26.356Z,496.00
2023-06-15T02:45:26.366Z,495.00
2023-06-15T02:46:26.376Z,493.00
2023-06-15T02:47:26.442Z,495.00
2023-06-15T02:48:26.408Z,499.00
2023-06-15T02:49:26.427Z,498.00
2023-06-15T02:50:26.431Z,497.00
2023-06-15T02:51:26.431Z,500.00
2023-06-15T02:52:26.469Z,500.00
2023-06-15T02:53:26.466Z,501.00
2023-06-15T02:54:26.477Z,501.00
2023-06-15T02:55:26.531Z,501.00
2023-06-15T02:56:26.548Z,500.00
2023-06-15T02:57:26.519Z,500.00
2023-06-15T02:58:26.527Z,499.00
2023-06-15T02:59:26.956Z,499.00
2023-06-15T03:00:26.569Z,502.00
2023-06-15T03:01:26.561Z,502.00
2023-06-15T03:02:26.664Z,505.00
2023-06-15T03:03:26.592Z,505.00
2023-06-15T03:04:26.602Z,504.00
2023-06-15T03:05:26.603Z,502.00
2023-06-15T03:06:26.627Z,500.00
2023-06-15T03:07:26.642Z,501.00
2023-06-15T03:08:26.672Z,499.00
2023-06-15T03:09:26.657Z,498.00
2023-06-15T03:10:26.680Z,496.00
2023-06-15T03:11:26.694Z,495.00
2023-06-15T03:12:26.700Z,497.00
2023-06-15T03:13:26.731Z,498.00
2023-06-15T03:14:26.723Z,497.00
2023-06-15T03:15:26.754Z,499.00
2023-06-15T03:16:26.776Z,500.00
2023-06-15T03:17:26.813Z,502.00
2023-06-15T03:18:26.804Z,505.00
2023-06-15T03:19:26.812Z,503.00
2023-06-15T03:20:26.818Z,501.00
2023-06-15T03:21:27.349Z,501.00
2023-06-15T03:22:27.214Z,503.00
2023-06-15T03:23:27.245Z,499.00
2023-06-15T03:24:27.340Z,498.00
2023-06-15T03:25:27.245Z,498.00
2023-06-15T03:26:27.249Z,498.00
2023-06-15T03:27:27.248Z,500.00
2023-06-15T03:28:27.262Z,498.00
2023-06-15T03:29:27.250Z,497.00
2023-06-15T03:30:27.252Z,497.00
2023-06-15T03:31:27.259Z,496.00
2023-06-15T03:32:27.259Z,498.00
2023-06-15T03:33:27.250Z,498.00
2023-06-15T03:34:27.313Z,496.00
2023-06-15T03:35:27.259Z,497.00
2023-06-15T03:36:27.909Z,497.00
2023-06-15T03:37:27.251Z,496.00
2023-06-15T03:38:27.260Z,494.00
2023-06-15T03:39:27.272Z,495.00
2023-06-15T03:40:27.353Z,496.00
2023-06-15T03:41:27.196Z,496.00
2023-06-15T03:42:27.196Z,495.00
2023-06-15T03:43:27.225Z,495.00
2023-06-15T03:44:27.223Z,497.00
2023-06-15T03:45:27.236Z,497.00
2023-06-15T03:46:27.619Z,498.00
2023-06-15T03:47:27.696Z,497.00
2023-06-15T03:48:27.657Z,498.00
2023-06-15T03:49:27.651Z,496.00
2023-06-15T03:50:27.650Z,496.00
2023-06-15T03:51:27.664Z,495.00
2023-06-15T03:52:27.655Z,495.00
2023-06-15T03:53:27.690Z,493.00
2023-06-15T03:54:27.657Z,493.00
2023-06-15T03:55:27.665Z,494.00
2023-06-15T03:56:27.672Z,494.00
2023-06-15T03:57:27.689Z,493.00
2023-06-15T03:58:27.656Z,492.00
2023-06-15T03:59:27.653Z,490.00
2023-06-15T04:00:27.647Z,489.00
2023-06-15T04:01:27.657Z,487.00
2023-06-15T04:02:27.702Z,489.00
2023-06-15T04:03:28.516Z,488.00
2023-06-15T04:04:27.659Z,490.00
2023-06-15T04:05:27.646Z,489.00
2023-06-15T04:06:27.668Z,487.00
2023-06-15T04:07:27.655Z,485.00
2023-06-15T04:08:27.653Z,485.00
2023-06-15T04:09:27.670Z,485.00
2023-06-15T04:10:27.695Z,482.00
2023-06-15T04:11:27.775Z,481.00
2023-06-15T04:12:27.774Z,483.00
2023-06-15T04:13:27.735Z,484.00
2023-06-15T04:14:27.761Z,487.00
2023-06-15T04:15:27.785Z,487.00
2023-06-15T04:16:27.817Z,488.00
2023-06-15T04:17:27.897Z,487.00
2023-06-15T04:18:27.853Z,486.00
2023-06-15T04:19:27.898Z,486.00
2023-06-15T04:20:27.889Z,486.00
2023-06-15T04:21:27.936Z,486.00
2023-06-15T04:22:27.915Z,487.00
2023-06-15T04:23:27.943Z,487.00
2023-06-15T04:24:27.983Z,485.00
2023-06-15T04:25:27.966Z,485.00
2023-06-15T04:26:27.989Z,485.00
2023-06-15T04:27:28.007Z,486.00
2023-06-15T04:28:28.052Z,486.00
2023-06-15T04:29:28.054Z,487.00
2023-06-15T04:30:28.059Z,487.00
2023-06-15T04:31:28.075Z,487.00
2023-06-15T04:32:28.109Z,486.00
2023-06-15T04:33:28.107Z,487.00
2023-06-15T04:34:28.130Z,486.00
2023-06-15T04:35:28.150Z,488.00
2023-06-15T04:36:28.179Z,489.00
2023-06-15T04:37:28.548Z,490.00
2023-06-15T04:38:28.597Z,490.00
2023-06-15T04:39:28.644Z,490.00
2023-06-15T04:40:28.585Z,488.00
2023-06-15T04:41:28.587Z,487.00
2023-06-15T04:42:28.592Z,485.00
2023-06-15T04:43:28.645Z,488.00
2023-06-15T04:44:28.625Z,488.00
2023-06-15T04:45:28.602Z,486.00
2023-06-15T04:46:28.601Z,487.00
2023-06-15T04:47:28.659Z,485.00
2023-06-15T04:48:28.629Z,486.00
2023-06-15T04:49:28.598Z,485.00
2023-06-15T04:50:28.596Z,487.00
2023-06-15T04:51:28.600Z,487.00
2023-06-15T04:52:28.614Z,488.00
2023-06-15T04:53:28.593Z,489.00
2023-06-15T04:54:28.603Z,490.00
2023-06-15T04:55:28.594Z,490.00
2023-06-15T04:56:28.620Z,494.00
2023-06-15T04:57:28.666Z,493.00
2023-06-15T04:58:28.648Z,494.00
2023-06-15T04:59:28.675Z,495.00
2023-06-15T05:00:29.693Z,494.00
2023-06-15T05:01:28.707Z,493.00
2023-06-15T05:02:28.755Z,494.00
2023-06-15T05:03:28.752Z,494.00
2023-06-15T05:04:28.714Z,495.00
2023-06-15T05:05:28.740Z,494.00
2023-06-15T05:06:28.732Z,495.00
2023-06-15T05:07:28.741Z,493.00
2023-06-15T05:08:28.736Z,491.00
2023-06-15T05:09:28.767Z,493.00
2023-06-15T05:10:44.706Z,493.00
2023-06-15T05:11:28.742Z,493.00
2023-06-15T05:12:28.763Z,495.00
2023-06-15T05:13:28.764Z,498.00
2023-06-15T05:14:28.760Z,496.00
2023-06-15T05:15:28.791Z,498.00
2023-06-15T05:16:28.794Z,499.00
2023-06-15T05:17:28.844Z,500.00
2023-06-15T05:18:28.780Z,500.00
2023-06-15T05:19:28.833Z,500.00
2023-06-15T05:20:28.787Z,496.00
2023-06-15T05:21:28.804Z,495.00
2023-06-15T05:22:28.809Z,496.00
2023-06-15T05:23:28.868Z,505.00
2023-06-15T05:24:29.591Z,510.00
2023-06-15T05:25:28.850Z,508.00
2023-06-15T05:26:30.586Z,514.00
2023-06-15T05:27:28.841Z,522.00
2023-06-15T05:28:28.869Z,525.00
2023-06-15T05:29:28.860Z,528.00
2023-06-15T05:30:28.893Z,529.00
2023-06-15T05:31:28.894Z,531.00
2023-06-15T05:32:33.139Z,536.00
2023-06-15T05:33:28.932Z,539.00
2023-06-15T05:34:28.915Z,538.00
2023-06-15T05:35:28.930Z,538.00
2023-06-15T05:36:34.509Z,539.00
2023-06-15T05:37:28.977Z,539.00
2023-06-15T05:38:28.967Z,539.00
2023-06-15T05:39:29.409Z,538.00
2023-06-15T05:40:28.971Z,540.00
2023-06-15T05:41:29.006Z,541.00
2023-06-15T05:42:29.000Z,541.00
2023-06-15T05:43:29.019Z,544.00
2023-06-15T05:44:29.383Z,542.00
2023-06-15T05:45:29.047Z,542.00
2023-06-15T05:46:30.056Z,546.00
2023-06-15T05:47:29.145Z,543.00
2023-06-15T05:48:29.128Z,542.00
2023-06-15T05:49:29.477Z,541.00
2023-06-15T05:50:29.104Z,543.00
2023-06-15T05:51:29.135Z,546.00
2023-06-15T05:52:30.207Z,544.00
2023-06-15T05:53:29.907Z,542.00
2023-06-15T05:54:29.966Z,542.00
2023-06-15T05:55:29.516Z,542.00
2023-06-15T05:57:36.995Z,684.00
2023-06-15T05:58:34.770Z,642.00
2023-06-15T05:59:45.226Z,636.00
2023-06-15T06:00:33.001Z,635.00
2023-06-15T06:01:45.432Z,628.00
2023-06-15T06:02:33.067Z,624.00
2023-06-15T06:03:37.343Z,623.00
2023-06-15T06:04:29.898Z,624.00
2023-06-15T06:06:32.946Z,633.00
2023-06-15T06:08:01.513Z,644.00
2023-06-15T06:08:32.897Z,653.00
2023-06-15T06:09:33.198Z,659.00
2023-06-15T06:11:37.503Z,679.00
2023-06-15T06:12:29.744Z,683.00
2023-06-15T06:14:37.146Z,681.00
2023-06-15T06:15:32.959Z,701.00
2023-06-15T06:16:33.009Z,699.00
2023-06-15T06:17:49.441Z,699.00
2023-06-15T06:18:29.865Z,694.00
2023-06-15T06:19:29.846Z,693.00
2023-06-15T06:22:45.406Z,678.00
2023-06-15T06:23:37.226Z,676.00
2023-06-15T06:24:30.957Z,677.00
2023-06-15T06:25:29.840Z,677.00
2023-06-15T06:26:29.826Z,676.00
2023-06-15T06:27:30.440Z,677.00
2023-06-15T06:28:37.298Z,679.00
2023-06-15T06:29:29.936Z,686.00
2023-06-15T06:30:29.883Z,689.00
2023-06-15T06:31:29.872Z,691.00
2023-06-15T06:32:29.931Z,703.00
2023-06-15T06:33:29.876Z,710.00
2023-06-15T06:34:45.735Z,721.00
2023-06-15T06:35:37.279Z,721.00
2023-06-15T06:36:29.867Z,719.00
2023-06-15T06:37:29.871Z,717.00
2023-06-15T06:38:29.874Z,716.00
2023-06-15T06:40:31.893Z,707.00
2023-06-15T06:44:37.265Z,693.00
2023-06-15T06:45:30.613Z,695.00
2023-06-15T06:47:45.511Z,699.00
2023-06-15T06:48:33.153Z,702.00
2023-06-15T06:49:30.402Z,707.00
2023-06-15T06:50:30.274Z,707.00
2023-06-15T06:51:29.873Z,706.00
2023-06-15T06:52:29.876Z,705.00
2023-06-15T06:53:30.870Z,709.00
2023-06-15T06:54:37.318Z,711.00
2023-06-15T06:55:29.885Z,714.00
2023-06-15T06:56:29.867Z,711.00
2023-06-15T06:57:30.000Z,706.00
2023-06-15T06:58:29.851Z,704.00
2023-06-15T06:59:42.432Z,723.00
2023-06-15T07:00:29.860Z,723.00
2023-06-15T07:01:29.857Z,723.00
2023-06-15T07:02:45.556Z,721.00
2023-06-15T07:03:37.320Z,715.00
2023-06-15T07:04:33.130Z,714.00
2023-06-15T07:05:33.169Z,713.00
2023-06-15T07:06:29.987Z,710.00
2023-06-15T07:07:29.893Z,705.00
2023-06-15T07:08:35.121Z,703.00
2023-06-15T07:09:30.373Z,703.00
2023-06-15T07:10:31.263Z,700.00
2023-06-15T07:11:29.939Z,691.00
2023-06-15T07:12:30.041Z,688.00
2023-06-15T07:13:31.000Z,685.00
2023-06-15T07:14:29.978Z,682.00
2023-06-15T07:15:29.957Z,687.00
2023-06-15T07:16:33.267Z,691.00
2023-06-15T07:17:30.233Z,692.00
2023-06-15T07:18:29.995Z,695.00
2023-06-15T07:19:31.130Z,696.00
2023-06-15T07:20:33.147Z,699.00
2023-06-15T07:21:33.283Z,700.00
2023-06-15T07:22:30.086Z,702.00
2023-06-15T07:23:44.840Z,703.00
2023-06-15T07:24:30.786Z,708.00
2023-06-15T07:25:30.181Z,711.00
2023-06-15T07:26:30.186Z,710.00
2023-06-15T07:27:30.356Z,711.00
2023-06-15T07:29:30.285Z,713.00
2023-06-15T07:30:30.192Z,710.00
2023-06-15T07:31:33.131Z,710.00
2023-06-15T07:32:30.213Z,710.00
2023-06-15T07:33:30.047Z,741.00
2023-06-15T07:34:30.250Z,753.00
2023-06-15T07:35:29.850Z,750.00
2023-06-15T07:36:30.292Z,752.00
2023-06-15T07:37:30.288Z,747.00
2023-06-15T07:38:30.096Z,744.00
2023-06-15T07:39:30.124Z,738.00
2023-06-15T07:40:29.870Z,740.00
2023-06-15T07:41:29.937Z,740.00
2023-06-15T07:42:29.871Z,738.00
2023-06-15T07:43:30.958Z,741.00
2023-06-15T07:44:29.979Z,741.00
2023-06-15T07:45:29.985Z,778.00
2023-06-15T07:46:30.017Z,757.00
2023-06-15T07:47:30.073Z,739.00
2023-06-15T07:48:30.429Z,732.00
2023-06-15T07:49:44.982Z,728.00
2023-06-15T07:50:30.150Z,784.00
2023-06-15T07:51:40.316Z,765.00
2023-06-15T07:52:30.116Z,754.00
2023-06-15T07:53:30.140Z,752.00
2023-06-15T07:54:30.610Z,751.00
2023-06-15T07:55:30.183Z,751.00
2023-06-15T07:56:30.129Z,755.00
2023-06-15T07:57:30.123Z,757.00
2023-06-15T07:58:30.389Z,753.00
2023-06-15T07:59:30.555Z,753.00
2023-06-15T08:00:30.517Z,753.00
2023-06-15T08:01:30.288Z,754.00
2023-06-15T08:02:30.078Z,762.00
2023-06-15T08:03:30.329Z,783.00
2023-06-15T08:04:30.668Z,827.00
2023-06-15T08:05:30.184Z,780.00
2023-06-15T08:06:30.254Z,783.00
2023-06-15T08:07:29.948Z,784.00
2023-06-15T08:08:29.923Z,784.00
2023-06-15T08:09:30.290Z,783.00
2023-06-15T08:10:30.015Z,784.00
2023-06-15T08:11:30.346Z,794.00
2023-06-15T08:12:29.879Z,808.00
2023-06-15T08:13:30.298Z,807.00
2023-06-15T08:14:30.498Z,803.00
2023-06-15T08:15:29.994Z,797.00
2023-06-15T08:16:30.246Z,792.00
2023-06-15T08:17:30.065Z,786.00
2023-06-15T08:18:30.235Z,783.00
2023-06-15T08:19:29.911Z,780.00
2023-06-15T08:20:29.939Z,779.00
2023-06-15T08:21:29.908Z,778.00
2023-06-15T08:22:30.590Z,776.00
2023-06-15T08:23:30.500Z,778.00
2023-06-15T08:24:30.946Z,780.00
2023-06-15T08:25:30.724Z,783.00
2023-06-15T08:26:30.225Z,792.00
2023-06-15T08:27:30.512Z,795.00
2023-06-15T08:28:35.833Z,807.00
2023-06-15T08:29:30.654Z,857.00
2023-06-15T08:30:30.608Z,847.00
2023-06-15T08:31:30.170Z,949.00
2023-06-15T08:32:30.199Z,864.00
2023-06-15T08:33:30.132Z,849.00
2023-06-15T08:34:30.226Z,848.00
2023-06-15T08:35:30.133Z,840.00
2023-06-15T08:36:30.142Z,842.00
2023-06-15T08:37:30.112Z,881.00
2023-06-15T08:38:30.101Z,853.00
2023-06-15T08:39:30.139Z,841.00
2023-06-15T08:40:30.165Z,846.00
2023-06-15T08:41:30.416Z,867.00
2023-06-15T08:42:30.348Z,953.00
2023-06-15T08:43:29.828Z,769.00
2023-06-15T08:44:30.325Z,640.00
2023-06-15T08:45:29.966Z,584.00
2023-06-15T08:46:30.702Z,566.00
2023-06-15T08:47:30.479Z,549.00
2023-06-15T08:48:32.191Z,529.00
2023-06-15T08:49:30.249Z,516.00
2023-06-15T08:50:30.012Z,508.00
2023-06-15T08:51:30.009Z,504.00
2023-06-15T08:52:31.053Z,492.00
2023-06-15T08:53:30.316Z,484.00
2023-06-15T08:54:30.237Z,475.00
2023-06-15T08:55:30.373Z,469.00
2023-06-15T08:56:30.464Z,465.00
2023-06-15T08:57:30.608Z,462.00
2023-06-15T08:58:30.966Z,459.00
2023-06-15T08:59:30.498Z,456.00
2023-06-15T09:00:30.467Z,454.00
2023-06-15T09:01:30.405Z,452.00
2023-06-15T09:02:30.592Z,454.00
2023-06-15T09:03:30.984Z,457.00
2023-06-15T09:04:30.280Z,462.00
2023-06-15T09:05:30.477Z,461.00
2023-06-15T09:06:30.618Z,459.00
2023-06-15T09:07:30.378Z,458.00
2023-06-15T09:08:31.146Z,454.00
2023-06-15T09:09:31.188Z,457.00
2023-06-15T09:10:30.149Z,455.00
2023-06-15T09:11:32.165Z,452.00
2023-06-15T09:12:30.488Z,452.00
2023-06-15T09:13:30.553Z,451.00
2023-06-15T09:14:30.567Z,451.00
2023-06-15T09:15:30.493Z,452.00
2023-06-15T09:16:30.499Z,450.00
2023-06-15T09:17:30.565Z,446.00
2023-06-15T09:18:30.492Z,445.00
2023-06-15T09:19:30.969Z,449.00
2023-06-15T09:20:30.561Z,450.00
2023-06-15T09:21:30.996Z,447.00
2023-06-15T09:22:30.591Z,443.00
2023-06-15T09:23:30.495Z,441.00
2023-06-15T09:24:31.106Z,440.00
2023-06-15T09:25:30.497Z,435.00
2023-06-15T09:26:30.518Z,435.00
2023-06-15T09:27:30.508Z,434.00
2023-06-15T09:28:30.494Z,435.00
2023-06-15T09:29:31.008Z,434.00
2023-06-15T09:30:30.521Z,435.00
2023-06-15T09:31:30.511Z,438.00
2023-06-15T09:32:30.646Z,437.00
2023-06-15T09:33:30.526Z,440.00
2023-06-15T09:34:31.017Z,442.00
2023-06-15T09:35:30.515Z,441.00
2023-06-15T09:36:30.519Z,440.00
2023-06-15T09:37:30.509Z,440.00
2023-06-15T09:38:30.527Z,440.00
2023-06-15T09:39:30.985Z,438.00
2023-06-15T09:40:30.505Z,439.00
2023-06-15T09:41:30.522Z,441.00
2023-06-15T09:42:30.586Z,444.00
2023-06-15T09:43:30.595Z,445.00
2023-06-15T09:44:30.978Z,444.00
2023-06-15T09:45:31.484Z,445.00
2023-06-15T09:46:31.657Z,444.00
2023-06-15T09:47:31.559Z,445.00
2023-06-15T09:48:30.737Z,444.00
2023-06-15T09:49:30.995Z,442.00
2023-06-15T09:50:30.807Z,443.00
2023-06-15T09:51:32.763Z,441.00
2023-06-15T09:52:31.183Z,438.00
2023-06-15T09:53:30.824Z,438.00
2023-06-15T09:54:31.006Z,438.00
2023-06-15T09:55:31.870Z,439.00
2023-06-15T09:56:31.925Z,442.00
2023-06-15T09:57:34.046Z,446.00
2023-06-15T09:58:30.837Z,450.00
2023-06-15T09:59:30.816Z,452.00
2023-06-15T10:00:30.818Z,455.00
2023-06-15T10:01:30.841Z,458.00
2023-06-15T10:02:30.868Z,457.00
2023-06-15T10:03:30.837Z,454.00
2023-06-15T10:04:30.991Z,454.00
2023-06-15T10:05:30.795Z,454.00
2023-06-15T10:06:30.797Z,459.00
2023-06-15T10:07:31.009Z,459.00
2023-06-15T10:08:31.007Z,469.00
2023-06-15T10:09:30.982Z,467.00
2023-06-15T10:10:30.957Z,467.00
2023-06-15T10:11:31.477Z,465.00
2023-06-15T10:12:30.773Z,466.00
2023-06-15T10:13:33.965Z,468.00
2023-06-15T10:14:31.027Z,467.00
2023-06-15T10:15:33.349Z,467.00
2023-06-15T10:16:30.759Z,468.00
2023-06-15T10:17:30.811Z,470.00
2023-06-15T10:18:30.736Z,467.00
2023-06-15T10:19:30.992Z,465.00
2023-06-15T10:20:30.742Z,468.00
2023-06-15T10:21:31.482Z,474.00
2023-06-15T10:22:30.761Z,476.00
2023-06-15T10:23:41.340Z,481.00
2023-06-15T10:24:31.102Z,489.00
2023-06-15T10:25:30.766Z,491.00
2023-06-15T10:26:30.716Z,491.00
2023-06-15T10:27:30.716Z,493.00
2023-06-15T10:28:30.667Z,497.00
2023-06-15T10:29:30.995Z,502.00
2023-06-15T10:30:30.676Z,507.00
2023-06-15T10:31:30.985Z,516.00
2023-06-15T10:32:32.677Z,524.00
2023-06-15T10:33:30.643Z,532.00
2023-06-15T10:34:30.992Z,542.00
2023-06-15T10:35:30.600Z,564.00
2023-06-15T10:36:31.021Z,574.00
2023-06-15T10:37:30.566Z,652.00
2023-06-15T10:38:30.551Z,642.00
2023-06-15T10:39:30.987Z,628.00
2023-06-15T10:40:30.496Z,621.00
2023-06-15T10:41:30.505Z,625.00
2023-06-15T10:42:30.522Z,644.00
2023-06-15T10:43:30.548Z,659.00
2023-06-15T10:44:30.439Z,678.00
2023-06-15T10:45:30.522Z,692.00
2023-06-15T10:46:30.423Z,705.00
2023-06-15T10:47:30.512Z,703.00
2023-06-15T10:48:30.366Z,723.00
2023-06-15T10:49:30.381Z,740.00
2023-06-15T10:50:30.358Z,740.00
2023-06-15T10:51:30.313Z,752.00
2023-06-15T10:52:30.401Z,760.00
2023-06-15T10:53:30.297Z,765.00
2023-06-15T10:54:30.296Z,778.00
2023-06-15T10:55:30.320Z,788.00
2023-06-15T10:56:30.320Z,800.00
2023-06-15T10:57:30.429Z,805.00
2023-06-15T10:58:30.349Z,799.00
2023-06-15T10:59:30.528Z,800.00
2023-06-15T11:00:30.343Z,806.00
2023-06-15T11:01:30.339Z,811.00
2023-06-15T11:02:30.857Z,809.00
2023-06-15T11:03:30.321Z,819.00
2023-06-15T11:04:30.390Z,820.00
2023-06-15T11:05:30.383Z,820.00
2023-06-15T11:06:30.340Z,829.00
2023-06-15T11:07:30.647Z,838.00
2023-06-15T11:08:30.384Z,845.00
2023-06-15T11:09:30.521Z,794.00
2023-06-15T11:10:30.362Z,785.00
2023-06-15T11:11:31.005Z,788.00
2023-06-15T11:12:30.365Z,846.00
2023-06-15T11:13:30.367Z,835.00
2023-06-15T11:14:30.510Z,835.00
2023-06-15T11:15:30.370Z,847.00
2023-06-15T11:16:30.374Z,840.00
2023-06-15T11:17:30.431Z,832.00
2023-06-15T11:18:36.871Z,832.00
2023-06-15T11:19:30.522Z,826.00
2023-06-15T11:20:30.385Z,822.00
2023-06-15T11:21:30.545Z,831.00
2023-06-15T11:22:30.360Z,832.00
2023-06-15T11:23:30.353Z,834.00
2023-06-15T11:24:30.570Z,828.00
2023-06-15T11:25:30.400Z,815.00
2023-06-15T11:26:30.298Z,806.00
2023-06-15T11:27:30.290Z,797.00
2023-06-15T11:29:29.660Z,781.00
2023-06-15T11:30:34.134Z,781.00
2023-06-15T11:31:31.023Z,789.00
2023-06-15T11:32:30.522Z,789.00
2023-06-15T11:33:31.036Z,791.00
2023-06-15T11:34:30.412Z,783.00
2023-06-15T11:35:30.397Z,783.00
2023-06-15T11:36:30.400Z,780.00
2023-06-15T11:37:30.646Z,782.00
2023-06-15T11:38:30.401Z,793.00
2023-06-15T11:39:30.416Z,799.00
2023-06-15T11:40:30.444Z,800.00
2023-06-15T11:41:30.430Z,801.00
2023-06-15T11:42:30.430Z,856.00
2023-06-15T11:43:30.445Z,852.00
2023-06-15T11:44:30.528Z,835.00
2023-06-15T11:45:30.413Z,830.00
2023-06-15T11:46:30.424Z,825.00
2023-06-15T11:47:30.474Z,822.00
2023-06-15T11:48:30.432Z,823.00
2023-06-15T11:49:30.414Z,824.00
2023-06-15T11:50:30.416Z,825.00
2023-06-15T11:51:30.408Z,828.00
2023-06-15T11:52:30.383Z,832.00
2023-06-15T11:53:30.404Z,831.00
2023-06-15T11:54:44.949Z,838.00
2023-06-15T11:55:30.336Z,830.00
2023-06-15T11:56:30.298Z,822.00
2023-06-15T11:57:30.280Z,837.00
2023-06-15T11:58:30.242Z,833.00
2023-06-15T11:59:30.538Z,838.00
2023-06-15T12:00:30.217Z,839.00
2023-06-15T12:01:32.901Z,837.00
2023-06-15T12:02:30.203Z,878.00
2023-06-15T12:03:30.307Z,869.00
2023-06-15T12:04:30.613Z,873.00
2023-06-15T12:05:31.453Z,854.00
2023-06-15T12:06:30.032Z,860.00
2023-06-15T12:07:37.890Z,866.00
2023-06-15T12:08:29.988Z,876.00
2023-06-15T12:09:29.992Z,886.00
2023-06-15T12:10:29.935Z,895.00
2023-06-15T12:11:30.046Z,918.00
2023-06-15T12:12:29.885Z,1078.00
2023-06-15T12:13:29.878Z,1009.00
2023-06-15T12:14:30.041Z,1008.00
2023-06-15T12:15:29.831Z,1011.00
2023-06-15T12:16:29.789Z,1003.00
2023-06-15T12:17:29.805Z,990.00
2023-06-15T12:18:29.744Z,1003.00
2023-06-15T12:19:29.715Z,1011.00
2023-06-15T12:20:29.674Z,1012.00
2023-06-15T12:21:29.653Z,1099.00
2023-06-15T12:22:36.929Z,1100.00
2023-06-15T12:23:29.594Z,1100.00
2023-06-15T12:24:29.733Z,1102.00
2023-06-15T12:25:29.584Z,1118.00
2023-06-15T12:26:29.489Z,1127.00
2023-06-15T12:27:29.451Z,1151.00
2023-06-15T12:28:30.416Z,1155.00
2023-06-15T12:29:29.408Z,1160.00
2023-06-15T12:30:29.326Z,1171.00
2023-06-15T12:31:29.311Z,1200.00
2023-06-15T12:32:29.314Z,1217.00
2023-06-15T12:33:29.249Z,1171.00
2023-06-15T12:34:29.217Z,1181.00
2023-06-15T12:35:29.633Z,1179.00
2023-06-15T12:36:29.122Z,1179.00
2023-06-15T12:37:33.050Z,1181.00
2023-06-15T12:38:29.097Z,1188.00
2023-06-15T12:39:29.061Z,1184.00
2023-06-15T12:40:28.981Z,1204.00